Time;durP1;ratioP1;P1;durP2;ratioP2;P2;SDS_P1;SDS_P2;PMS_P1;PMS_P2;Temp;Humidity;BMP_temperature;BMP_pressure;BME280_temperature;BME280_humidity;BME280_pressure;Samples;Min_cycle;Max_cycle;Signal;HPM_P1;HPM_P2
2021/11/16 00:00:01;;;;;;;36.67;22.53;;;;;;;;;;5053317;28;20463;-69
2021/11/16 00:02:27;;;;;;;37.47;21.27;;;;;;;;;;5053413;28;20952;-68
2021/11/16 00:04:54;;;;;;;32.87;21.00;;;;;;;;;;5053374;28;20816;-68
2021/11/16 00:07:20;;;;;;;30.90;20.50;;;;;;;;;;5053625;28;20397;-68
2021/11/16 00:09:46;;;;;;;34.33;20.57;;;;;;;;;;5053085;28;20492;-68
2021/11/16 00:12:13;;;;;;;31.07;18.70;;;;;;;;;;5053310;28;20413;-68
2021/11/16 00:14:39;;;;;;;34.20;21.20;;;;;;;;;;5053275;28;20410;-68
2021/11/16 00:17:06;;;;;;;31.60;18.67;;;;;;;;;;5052661;28;20470;-68
2021/11/16 00:19:32;;;;;;;32.37;20.57;;;;;;;;;;5053081;28;20421;-68
2021/11/16 00:21:58;;;;;;;27.43;19.77;;;;;;;;;;5053091;28;20540;-68
2021/11/16 00:24:37;;;;;;;32.83;19.47;;;;;;;;;;5052969;28;20394;-68
2021/11/16 00:27:04;;;;;;;29.90;17.97;;;;;;;;;;5052945;28;20449;-68
2021/11/16 00:29:30;;;;;;;30.10;18.60;;;;;;;;;;5052883;28;20398;-68
2021/11/16 00:31:56;;;;;;;34.93;19.60;;;;;;;;;;5052905;28;20394;-68
2021/11/16 00:34:22;;;;;;;30.70;19.07;;;;;;;;;;5053170;28;20386;-68
2021/11/16 00:36:48;;;;;;;33.43;20.87;;;;;;;;;;5052910;28;20504;-69
2021/11/16 00:39:14;;;;;;;31.40;18.70;;;;;;;;;;5052768;28;20389;-68
2021/11/16 00:41:42;;;;;;;35.43;20.03;;;;;;;;;;5043167;28;20441;-69
2021/11/16 00:44:08;;;;;;;35.33;21.47;;;;;;;;;;5052698;28;20419;-69
2021/11/16 00:46:34;;;;;;;32.27;18.60;;;;;;;;;;5052522;28;20509;-69
2021/11/16 00:49:00;;;;;;;33.80;20.37;;;;;;;;;;5052750;28;20759;-69
2021/11/16 00:51:26;;;;;;;37.10;20.43;;;;;;;;;;5052609;28;20996;-69
2021/11/16 00:53:52;;;;;;;36.03;17.80;;;;;;;;;;5052558;28;20406;-69
2021/11/16 00:56:19;;;;;;;34.20;19.50;;;;;;;;;;5052455;28;20946;-69
2021/11/16 00:58:45;;;;;;;30.40;17.97;;;;;;;;;;5052612;28;20398;-68
2021/11/16 01:01:11;;;;;;;33.33;19.13;;;;;;;;;;5052712;28;20409;-68
2021/11/16 01:03:37;;;;;;;32.00;18.20;;;;;;;;;;5052648;28;20508;-67
2021/11/16 01:06:04;;;;;;;29.77;17.20;;;;;;;;;;5052412;28;20426;-69
2021/11/16 01:08:30;;;;;;;30.17;19.70;;;;;;;;;;5052455;28;20406;-67
2021/11/16 01:10:56;;;;;;;33.63;19.43;;;;;;;;;;5052301;28;20489;-69
2021/11/16 01:13:23;;;;;;;29.87;18.03;;;;;;;;;;5047570;28;20438;-69
2021/11/16 01:15:50;;;;;;;30.30;18.03;;;;;;;;;;5035165;28;20796;-67
2021/11/16 01:18:17;;;;;;;29.03;18.00;;;;;;;;;;5052380;28;20405;-68
2021/11/16 01:20:44;;;;;;;30.13;18.90;;;;;;;;;;5052705;28;20773;-68
2021/11/16 01:23:11;;;;;;;31.10;19.00;;;;;;;;;;5052376;28;20410;-68
2021/11/16 01:25:38;;;;;;;37.47;20.07;;;;;;;;;;5052107;28;20520;-68
2021/11/16 01:28:11;;;;;;;38.43;20.50;;;;;;;;;;5053889;28;20416;-68
2021/11/16 01:30:38;;;;;;;33.93;19.83;;;;;;;;;;5056249;28;20457;-69
2021/11/16 01:33:20;;;;;;;36.33;20.20;;;;;;;;;;5054753;28;20406;-68
2021/11/16 01:35:47;;;;;;;37.23;19.10;;;;;;;;;;5055797;28;20422;-68
2021/11/16 01:38:15;;;;;;;34.57;19.77;;;;;;;;;;5056039;28;20476;-67
2021/11/16 01:40:42;;;;;;;33.57;19.90;;;;;;;;;;5044454;28;20418;-68
2021/11/16 01:43:10;;;;;;;32.93;19.87;;;;;;;;;;5041894;28;20440;-69
2021/11/16 01:45:36;;;;;;;31.63;19.17;;;;;;;;;;5055370;28;20512;-70
2021/11/16 01:48:03;;;;;;;36.77;19.90;;;;;;;;;;5055636;28;20467;-68
2021/11/16 01:50:29;;;;;;;34.50;19.80;;;;;;;;;;5055494;28;20965;-68
2021/11/16 01:52:55;;;;;;;38.37;21.80;;;;;;;;;;5055470;28;20406;-67
2021/11/16 01:55:22;;;;;;;36.33;19.33;;;;;;;;;;5055246;28;20518;-67
2021/11/16 01:57:49;;;;;;;35.00;19.80;;;;;;;;;;5055365;28;20406;-69
2021/11/16 02:00:35;;;;;;;39.60;22.67;;;;;;;;;;5055614;28;20433;-69
2021/11/16 02:03:01;;;;;;;43.07;22.10;;;;;;;;;;5055469;28;20788;-69
2021/11/16 02:05:44;;;;;;;34.23;20.30;;;;;;;;;;5055529;28;20811;-70
2021/11/16 02:08:12;;;;;;;36.00;21.83;;;;;;;;;;5044396;28;20438;-69
2021/11/16 02:10:39;;;;;;;37.13;21.43;;;;;;;;;;5052264;28;20484;-69
2021/11/16 02:13:05;;;;;;;35.10;20.07;;;;;;;;;;5040810;28;20422;-69
2021/11/16 02:15:31;;;;;;;36.17;20.23;;;;;;;;;;5047635;28;20477;-69
2021/11/16 02:17:58;;;;;;;36.17;20.90;;;;;;;;;;5055342;28;20459;-68
2021/11/16 02:20:29;;;;;;;40.03;21.47;;;;;;;;;;5054979;28;20501;-69
2021/11/16 02:22:55;;;;;;;36.20;19.43;;;;;;;;;;5054973;28;20432;-69
2021/11/16 02:25:21;;;;;;;45.80;23.20;;;;;;;;;;5054992;28;20429;-68
2021/11/16 02:27:49;;;;;;;40.30;23.17;;;;;;;;;;5055092;28;20409;-69
2021/11/16 02:30:15;;;;;;;39.23;21.83;;;;;;;;;;5054873;28;20587;-69
2021/11/16 02:32:44;;;;;;;45.30;22.00;;;;;;;;;;5054872;28;20398;-69
2021/11/16 02:35:10;;;;;;;37.97;21.20;;;;;;;;;;5054902;28;20422;-69
2021/11/16 02:37:36;;;;;;;43.67;22.90;;;;;;;;;;5054724;28;20425;-69
2021/11/16 02:40:03;;;;;;;40.90;21.07;;;;;;;;;;5054326;28;20929;-69
2021/11/16 02:42:30;;;;;;;40.63;23.23;;;;;;;;;;5053491;28;20902;-69
2021/11/16 02:44:56;;;;;;;41.57;21.20;;;;;;;;;;5048894;28;20789;-69
2021/11/16 02:47:22;;;;;;;39.40;21.00;;;;;;;;;;5054502;28;20417;-69
2021/11/16 02:49:48;;;;;;;36.70;22.43;;;;;;;;;;5054633;28;20548;-69
2021/11/16 02:52:14;;;;;;;41.80;20.37;;;;;;;;;;5054417;28;20391;-69
2021/11/16 02:54:41;;;;;;;40.97;22.03;;;;;;;;;;5054573;28;20814;-69
2021/11/16 02:57:08;;;;;;;42.57;21.53;;;;;;;;;;5054127;28;20466;-68
2021/11/16 02:59:34;;;;;;;35.27;20.40;;;;;;;;;;5054642;28;20398;-68
2021/11/16 03:02:00;;;;;;;35.23;19.90;;;;;;;;;;5054331;28;20448;-68
2021/11/16 03:04:27;;;;;;;33.00;18.97;;;;;;;;;;5054017;28;20965;-68
2021/11/16 03:06:54;;;;;;;33.50;18.73;;;;;;;;;;5054381;28;20810;-68
2021/11/16 03:09:20;;;;;;;37.30;19.60;;;;;;;;;;5053887;28;20447;-68
2021/11/16 03:11:48;;;;;;;35.27;18.10;;;;;;;;;;5040272;28;20423;-68
2021/11/16 03:14:14;;;;;;;30.73;16.33;;;;;;;;;;5048604;28;20414;-68
2021/11/16 03:16:41;;;;;;;29.37;17.57;;;;;;;;;;5052530;28;20958;-69
2021/11/16 03:19:07;;;;;;;24.43;14.63;;;;;;;;;;5052699;28;20972;-69
2021/11/16 03:21:33;;;;;;;27.07;18.10;;;;;;;;;;5054074;28;20902;-69
2021/11/16 03:23:59;;;;;;;27.30;15.17;;;;;;;;;;5053821;28;20414;-69
2021/11/16 03:26:27;;;;;;;29.57;16.63;;;;;;;;;;5054288;28;20434;-69
2021/11/16 03:28:55;;;;;;;30.30;18.33;;;;;;;;;;5053878;28;20413;-69
2021/11/16 03:33:54;;;;;;;33.03;17.23;;;;;;;;;;5053617;28;20398;-68
2021/11/16 03:36:22;;;;;;;26.07;15.67;;;;;;;;;;5053647;28;20417;-68
2021/11/16 03:38:49;;;;;;;30.27;16.40;;;;;;;;;;5049159;28;20512;-68
2021/11/16 03:41:16;;;;;;;27.17;15.67;;;;;;;;;;5037488;28;20977;-68
2021/11/16 03:43:44;;;;;;;28.70;17.10;;;;;;;;;;5040781;28;20439;-69
2021/11/16 03:46:10;;;;;;;25.07;14.90;;;;;;;;;;5052982;28;20445;-69
2021/11/16 03:48:37;;;;;;;29.80;17.30;;;;;;;;;;5053490;28;20394;-69
2021/11/16 03:51:03;;;;;;;33.87;16.37;;;;;;;;;;5052535;28;20496;-69
2021/11/16 03:53:29;;;;;;;28.10;16.10;;;;;;;;;;5053283;28;20402;-68
2021/11/16 03:55:55;;;;;;;28.20;17.03;;;;;;;;;;5052947;28;20938;-68
2021/11/16 03:58:23;;;;;;;34.53;18.13;;;;;;;;;;5053322;28;20398;-69
2021/11/16 04:00:58;;;;;;;32.63;18.47;;;;;;;;;;5053441;28;20410;-69
2021/11/16 04:03:25;;;;;;;35.83;17.80;;;;;;;;;;5053136;28;20898;-69
2021/11/16 04:05:52;;;;;;;32.13;18.17;;;;;;;;;;5053382;28;20441;-69
2021/11/16 04:08:18;;;;;;;33.40;16.77;;;;;;;;;;5053343;28;20492;-69
2021/11/16 04:10:45;;;;;;;32.03;17.57;;;;;;;;;;5052992;28;20453;-68
2021/11/16 04:13:12;;;;;;;31.17;16.40;;;;;;;;;;5053022;28;20813;-68
2021/11/16 04:15:39;;;;;;;35.57;17.43;;;;;;;;;;5052699;28;20422;-70
2021/11/16 04:18:06;;;;;;;30.40;17.63;;;;;;;;;;5053339;28;20398;-69
2021/11/16 04:20:33;;;;;;;31.37;16.83;;;;;;;;;;5053100;28;20410;-69
2021/11/16 04:23:01;;;;;;;30.30;16.33;;;;;;;;;;5053014;28;20406;-69
2021/11/16 04:25:28;;;;;;;31.77;17.40;;;;;;;;;;5042316;28;20617;-69
2021/11/16 04:27:55;;;;;;;38.70;18.30;;;;;;;;;;5037399;28;20434;-69
2021/11/16 04:30:22;;;;;;;35.57;17.60;;;;;;;;;;5041510;28;21021;-69
2021/11/16 04:32:49;;;;;;;31.53;17.47;;;;;;;;;;5052735;28;20504;-68
2021/11/16 04:35:15;;;;;;;34.40;19.30;;;;;;;;;;5052756;28;20418;-70
2021/11/16 04:37:43;;;;;;;43.03;18.70;;;;;;;;;;5053171;28;20914;-69
2021/11/16 04:40:11;;;;;;;35.80;18.23;;;;;;;;;;5053018;28;20414;-69
2021/11/16 04:42:38;;;;;;;32.43;18.07;;;;;;;;;;5052664;28;20422;-68
2021/11/16 04:45:10;;;;;;;28.10;16.10;;;;;;;;;;5053011;28;20406;-69
2021/11/16 04:47:51;;;;;;;34.03;17.97;;;;;;;;;;5032979;28;20395;-69
2021/11/16 05:03:41;;;;;;;26.70;17.37;;;;;;;;;;5044947;28;20414;-68
2021/11/16 05:06:07;;;;;;;32.73;17.67;;;;;;;;;;5056087;28;20504;-68
2021/11/16 05:08:33;;;;;;;28.97;15.77;;;;;;;;;;5056229;28;20398;-68
2021/11/16 05:10:59;;;;;;;31.77;15.93;;;;;;;;;;5056120;28;20476;-68
2021/11/16 05:13:26;;;;;;;29.83;17.30;;;;;;;;;;5055896;28;20531;-68
2021/11/16 05:15:52;;;;;;;27.03;15.63;;;;;;;;;;5056246;28;20445;-68
2021/11/16 05:18:18;;;;;;;32.90;16.53;;;;;;;;;;5055982;28;20480;-68
2021/11/16 05:20:44;;;;;;;32.53;18.30;;;;;;;;;;5056167;28;20895;-70
2021/11/16 05:23:12;;;;;;;39.67;15.70;;;;;;;;;;5056009;28;20412;-68
2021/11/16 05:25:38;;;;;;;27.50;15.90;;;;;;;;;;5055822;28;20433;-68
2021/11/16 05:28:07;;;;;;;31.67;17.10;;;;;;;;;;5053420;28;20412;-67
2021/11/16 05:30:35;;;;;;;28.47;14.23;;;;;;;;;;5035856;28;20460;-68
2021/11/16 05:33:01;;;;;;;28.80;16.53;;;;;;;;;;5047873;28;20420;-68
2021/11/16 05:35:27;;;;;;;23.83;14.40;;;;;;;;;;5055887;28;20426;-69
2021/11/16 05:37:53;;;;;;;23.07;14.73;;;;;;;;;;5055958;28;20420;-68
2021/11/16 05:40:19;;;;;;;29.73;16.97;;;;;;;;;;5055835;28;20410;-68
2021/11/16 05:42:45;;;;;;;26.80;15.40;;;;;;;;;;5055370;28;20418;-68
2021/11/16 05:45:11;;;;;;;25.10;16.10;;;;;;;;;;5055324;28;20437;-68
2021/11/16 05:47:39;;;;;;;27.63;15.03;;;;;;;;;;5054451;28;20471;-68
2021/11/16 05:50:06;;;;;;;27.07;14.00;;;;;;;;;;5055716;28;20973;-68
2021/11/16 05:52:32;;;;;;;25.83;14.60;;;;;;;;;;5055851;28;20417;-68
2021/11/16 05:54:58;;;;;;;22.53;14.10;;;;;;;;;;5055377;28;20409;-68
2021/11/16 05:57:24;;;;;;;24.63;14.43;;;;;;;;;;5054403;28;20410;-68
2021/11/16 05:59:50;;;;;;;23.27;12.90;;;;;;;;;;5056132;28;20406;-68
2021/11/16 06:02:16;;;;;;;22.97;13.53;;;;;;;;;;5055355;28;20410;-68
2021/11/16 06:04:44;;;;;;;23.57;13.50;;;;;;;;;;5055807;28;20822;-68
2021/11/16 06:07:10;;;;;;;27.73;13.70;;;;;;;;;;5055619;28;20429;-68
2021/11/16 06:09:36;;;;;;;20.53;12.03;;;;;;;;;;5054018;28;20410;-68
2021/11/16 06:12:03;;;;;;;21.13;12.17;;;;;;;;;;5055000;28;20463;-68
2021/11/16 06:14:30;;;;;;;21.90;12.63;;;;;;;;;;5054370;28;20477;-69
2021/11/16 06:16:56;;;;;;;19.57;11.50;;;;;;;;;;5055128;28;20426;-69
2021/11/16 06:19:26;;;;;;;19.63;12.50;;;;;;;;;;5055003;28;20482;-68
2021/11/16 06:21:52;;;;;;;30.43;12.83;;;;;;;;;;5054768;28;20897;-69
2021/11/16 06:24:19;;;;;;;20.53;12.50;;;;;;;;;;5055286;28;20405;-69
2021/11/16 06:26:45;;;;;;;17.80;12.10;;;;;;;;;;5054874;28;20429;-68
2021/11/16 06:29:11;;;;;;;15.73;9.40;;;;;;;;;;5037298;28;20540;-69
2021/11/16 06:31:37;;;;;;;22.27;10.10;;;;;;;;;;5036080;28;20450;-69
2021/11/16 06:34:05;;;;;;;21.87;11.70;;;;;;;;;;5054761;28;20405;-68
2021/11/16 06:36:34;;;;;;;17.90;10.40;;;;;;;;;;5054679;28;20425;-69
2021/11/16 06:39:20;;;;;;;16.90;10.77;;;;;;;;;;5054786;28;20942;-69
2021/11/16 06:41:47;;;;;;;15.40;10.93;;;;;;;;;;5054578;28;20416;-69
2021/11/16 06:44:14;;;;;;;14.77;10.63;;;;;;;;;;5054685;28;20394;-70
2021/11/16 06:46:41;;;;;;;18.00;10.60;;;;;;;;;;5054697;28;20484;-69
2021/11/16 06:49:08;;;;;;;19.30;9.43;;;;;;;;;;5054734;28;20489;-69
2021/11/16 06:51:38;;;;;;;18.80;10.50;;;;;;;;;;5054392;28;20458;-69
2021/11/16 06:54:09;;;;;;;14.27;10.30;;;;;;;;;;5054617;28;20426;-69
2021/11/16 06:56:35;;;;;;;19.80;10.57;;;;;;;;;;5054314;28;20441;-68
2021/11/16 06:59:01;;;;;;;16.83;10.80;;;;;;;;;;5054447;28;20408;-69
2021/11/16 07:01:29;;;;;;;16.33;10.23;;;;;;;;;;5054062;28;20933;-69
2021/11/16 07:03:58;;;;;;;17.77;10.30;;;;;;;;;;5054591;28;20447;-69
2021/11/16 07:06:27;;;;;;;16.13;9.70;;;;;;;;;;5054127;28;20430;-69
2021/11/16 07:08:54;;;;;;;17.23;9.83;;;;;;;;;;5053134;28;20509;-68
2021/11/16 07:11:21;;;;;;;17.77;9.60;;;;;;;;;;5052752;28;20545;-69
2021/11/16 07:13:54;;;;;;;16.20;10.13;;;;;;;;;;5054322;28;20410;-68
2021/11/16 07:16:20;;;;;;;13.50;8.80;;;;;;;;;;5053178;28;20434;-68
2021/11/16 07:18:51;;;;;;;14.60;10.10;;;;;;;;;;5052199;28;20477;-68
2021/11/16 07:21:17;;;;;;;14.67;9.17;;;;;;;;;;5053808;28;20799;-65
2021/11/16 07:23:44;;;;;;;17.90;10.50;;;;;;;;;;5053873;28;20406;-66
2021/11/16 07:26:14;;;;;;;16.80;10.17;;;;;;;;;;5053714;28;20424;-66
2021/11/16 07:28:49;;;;;;;12.90;9.27;;;;;;;;;;5040926;28;20414;-65
2021/11/16 07:31:20;;;;;;;15.17;8.80;;;;;;;;;;5039634;28;20457;-66
2021/11/16 07:33:46;;;;;;;12.77;8.97;;;;;;;;;;5053797;28;20406;-65
2021/11/16 07:36:15;;;;;;;19.40;9.27;;;;;;;;;;5053959;28;20418;-65
2021/11/16 07:38:42;;;;;;;12.13;8.90;;;;;;;;;;5053937;28;20409;-65
2021/11/16 07:41:08;;;;;;;11.57;7.93;;;;;;;;;;5053145;28;20890;-65
2021/11/16 07:43:34;;;;;;;13.43;9.10;;;;;;;;;;5053572;28;20738;-66
2021/11/16 07:46:01;;;;;;;13.73;9.00;;;;;;;;;;5053654;28;20847;-66
2021/11/16 07:48:30;;;;;;;14.97;8.67;;;;;;;;;;5052825;28;20463;-66
2021/11/16 07:50:57;;;;;;;13.83;8.83;;;;;;;;;;5052843;28;20506;-63
2021/11/16 07:53:23;;;;;;;13.80;8.60;;;;;;;;;;5052662;28;20782;-67
2021/11/16 07:55:51;;;;;;;14.77;8.73;;;;;;;;;;5052628;28;20480;-64
2021/11/16 07:58:18;;;;;;;13.43;8.57;;;;;;;;;;5046642;28;20429;-65
2021/11/16 08:00:46;;;;;;;15.63;9.60;;;;;;;;;;5051621;28;20866;-67
2021/11/16 08:03:15;;;;;;;14.17;9.23;;;;;;;;;;5048541;28;20525;-65
2021/11/16 08:10:44;;;;;;;12.60;8.40;;;;;;;;;;5050580;28;20466;-63
2021/11/16 08:13:19;;;;;;;15.67;8.90;;;;;;;;;;5051123;28;20770;-61
2021/11/16 08:15:46;;;;;;;15.93;8.70;;;;;;;;;;5052461;28;20428;-63
2021/11/16 08:18:14;;;;;;;13.90;8.77;;;;;;;;;;5051659;28;20417;-62
2021/11/16 08:20:41;;;;;;;13.70;8.33;;;;;;;;;;5054110;28;20437;-65
2021/11/16 08:23:08;;;;;;;11.27;7.30;;;;;;;;;;5053498;28;20491;-68
2021/11/16 08:25:35;;;;;;;12.63;8.03;;;;;;;;;;5061115;28;20490;-68
2021/11/16 08:28:03;;;;;;;12.17;7.23;;;;;;;;;;5049474;28;20505;-68
2021/11/16 08:30:29;;;;;;;13.47;8.90;;;;;;;;;;5055509;28;20490;-67
2021/11/16 08:32:59;;;;;;;15.27;8.75;;;;;;;;;;5057129;28;20847;-64
2021/11/16 08:35:25;;;;;;;12.40;7.83;;;;;;;;;;5054316;28;20179;-65
2021/11/16 08:38:00;;;;;;;14.57;9.17;;;;;;;;;;5056824;28;20738;-64
2021/11/16 08:40:27;;;;;;;13.45;9.45;;;;;;;;;;5053688;28;20427;-64
2021/11/16 08:42:54;;;;;;;16.97;9.30;;;;;;;;;;5058894;28;20179;-66
2021/11/16 08:45:25;;;;;;;15.63;9.40;;;;;;;;;;5058020;28;20938;-65
2021/11/16 08:47:53;;;;;;;14.63;9.20;;;;;;;;;;5057981;28;20505;-65
2021/11/16 08:50:27;;;;;;;14.43;8.10;;;;;;;;;;5058472;28;20453;-64
2021/11/16 08:52:54;;;;;;;15.77;9.60;;;;;;;;;;5058393;28;20421;-64
2021/11/16 08:55:23;;;;;;;16.10;9.10;;;;;;;;;;5053320;28;20437;-65
2021/11/16 08:57:51;;;;;;;14.03;8.60;;;;;;;;;;5057821;28;20464;-67
2021/11/16 09:00:44;;;;;;;13.82;8.20;;;;;;;;;;5053657;28;20851;-65
2021/11/16 09:03:11;;;;;;;13.40;8.10;;;;;;;;;;5054208;28;20183;-66
2021/11/16 09:05:43;;;;;;;15.90;8.20;;;;;;;;;;5057701;28;20945;-64
2021/11/16 09:08:20;;;;;;;14.70;9.80;;;;;;;;;;5057842;28;20496;-65
2021/11/16 09:10:47;;;;;;;13.13;7.93;;;;;;;;;;5056947;28;20725;-65
2021/11/16 09:13:14;;;;;;;13.97;8.17;;;;;;;;;;5057776;28;20418;-64
2021/11/16 09:15:43;;;;;;;14.30;8.40;;;;;;;;;;5061258;28;20433;-66
2021/11/16 09:18:12;;;;;;;15.40;8.90;;;;;;;;;;5057292;28;20749;-66
2021/11/16 09:20:39;;;;;;;14.80;8.80;;;;;;;;;;5061200;28;20803;-64
2021/11/16 09:23:05;;;;;;;16.00;8.73;;;;;;;;;;5058416;28;20417;-66
2021/11/16 09:25:35;;;;;;;15.40;8.60;;;;;;;;;;5064159;28;20845;-67
2021/11/16 09:28:14;;;;;;;10.57;7.20;;;;;;;;;;5060537;28;20837;-65
2021/11/16 09:30:42;;;;;;;13.93;9.60;;;;;;;;;;5055175;28;20544;-69
2021/11/16 09:33:13;;;;;;;13.43;8.03;;;;;;;;;;5057757;28;20421;-68
2021/11/16 09:35:51;;;;;;;13.60;8.53;;;;;;;;;;5060283;28;20433;-67
2021/11/16 09:38:35;;;;;;;16.63;9.00;;;;;;;;;;5058751;28;20792;-65
2021/11/16 09:41:01;;;;;;;13.00;7.53;;;;;;;;;;5058981;28;20776;-68
2021/11/16 09:43:27;;;;;;;13.30;8.67;;;;;;;;;;5059118;28;20460;-67
2021/11/16 09:45:54;;;;;;;15.60;8.70;;;;;;;;;;5058283;28;20444;-65
2021/11/16 09:48:26;;;;;;;13.33;8.00;;;;;;;;;;5057115;28;20415;-65
2021/11/16 09:50:52;;;;;;;13.57;8.10;;;;;;;;;;5055394;28;20453;-68
2021/11/16 09:53:19;;;;;;;17.10;9.83;;;;;;;;;;5056911;28;20414;-68
2021/11/16 09:55:45;;;;;;;14.23;8.67;;;;;;;;;;5057485;28;20452;-68
2021/11/16 09:58:23;;;;;;;16.47;9.30;;;;;;;;;;5055919;28;20827;-68
2021/11/16 10:00:50;;;;;;;15.83;10.20;;;;;;;;;;5055820;28;20475;-67
2021/11/16 10:03:17;;;;;;;14.30;8.70;;;;;;;;;;5058799;28;20843;-68
2021/11/16 10:05:48;;;;;;;20.07;10.77;;;;;;;;;;5055136;28;20970;-67
2021/11/16 10:08:17;;;;;;;16.47;8.20;;;;;;;;;;5055993;28;20422;-69
2021/11/16 10:10:45;;;;;;;18.93;9.67;;;;;;;;;;5055161;28;20465;-67
2021/11/16 10:13:12;;;;;;;13.77;8.70;;;;;;;;;;5055725;28;20450;-67
2021/11/16 10:15:40;;;;;;;13.00;8.07;;;;;;;;;;5060146;28;20473;-63
2021/11/16 10:18:06;;;;;;;13.50;8.30;;;;;;;;;;5066043;28;20425;-61
2021/11/16 10:20:35;;;;;;;16.40;9.80;;;;;;;;;;5058684;28;20901;-65
2021/11/16 10:23:03;;;;;;;10.97;7.23;;;;;;;;;;5053252;28;20425;-67
2021/11/16 10:25:33;;;;;;;11.93;7.70;;;;;;;;;;5058998;28;20749;-64
2021/11/16 10:28:05;;;;;;;14.30;8.00;;;;;;;;;;5057757;28;20417;-64
2021/11/16 10:30:32;;;;;;;9.93;5.83;;;;;;;;;;5051720;28;20450;-67
2021/11/16 10:33:07;;;;;;;10.30;6.10;;;;;;;;;;5058123;28;20438;-68
2021/11/16 10:35:34;;;;;;;32.93;9.00;;;;;;;;;;5058787;28;20947;-64
2021/11/16 10:38:04;;;;;;;17.63;7.50;;;;;;;;;;5060609;28;20439;-67
2021/11/16 10:40:30;;;;;;;20.70;7.67;;;;;;;;;;5054004;28;20410;-68
2021/11/16 10:42:58;;;;;;;9.13;6.20;;;;;;;;;;5063160;28;20539;-68
2021/11/16 10:45:29;;;;;;;13.68;9.10;;;;;;;;;;5053786;28;20420;-65
2021/11/16 10:48:00;;;;;;;17.67;8.70;;;;;;;;;;5056832;28;20183;-68
2021/11/16 10:50:28;;;;;;;15.53;9.73;;;;;;;;;;5052863;28;20450;-67
2021/11/16 10:53:00;;;;;;;14.57;8.13;;;;;;;;;;5053219;28;20413;-70
2021/11/16 10:55:52;;;;;;;14.33;8.43;;;;;;;;;;5049875;28;20457;-70
2021/11/16 10:58:21;;;;;;;15.70;8.83;;;;;;;;;;5057408;28;20422;-69
2021/11/16 11:01:01;;;;;;;16.20;9.20;;;;;;;;;;5053621;28;20425;-64
2021/11/16 11:03:28;;;;;;;14.50;8.23;;;;;;;;;;5054661;28;20414;-64
2021/11/16 11:05:59;;;;;;;17.13;8.70;;;;;;;;;;5049236;28;20434;-64
2021/11/16 11:08:36;;;;;;;14.10;9.30;;;;;;;;;;5052954;28;20489;-64
2021/11/16 11:11:04;;;;;;;16.97;8.50;;;;;;;;;;5040904;28;20457;-63
2021/11/16 11:13:31;;;;;;;16.27;10.10;;;;;;;;;;5055100;28;20810;-63
2021/11/16 11:15:57;;;;;;;12.63;7.97;;;;;;;;;;5055302;28;20418;-63
2021/11/16 11:18:34;;;;;;;15.67;8.60;;;;;;;;;;5052599;28;20425;-64
2021/11/16 11:21:01;;;;;;;14.77;8.60;;;;;;;;;;5055627;28;20422;-63
2021/11/16 11:23:31;;;;;;;15.90;10.50;;;;;;;;;;5053613;28;20436;-65
2021/11/16 11:26:18;;;;;;;15.80;9.30;;;;;;;;;;5057493;28;20572;-65
2021/11/16 11:28:53;;;;;;;11.87;7.23;;;;;;;;;;5049490;28;20406;-64
2021/11/16 11:31:29;;;;;;;20.03;8.80;;;;;;;;;;5054565;28;20453;-63
2021/11/16 11:33:56;;;;;;;15.73;9.80;;;;;;;;;;5055628;28;20859;-64
2021/11/16 11:36:24;;;;;;;13.60;8.60;;;;;;;;;;5049934;28;20429;-63
2021/11/16 11:38:51;;;;;;;14.80;8.10;;;;;;;;;;5052422;28;20421;-64
2021/11/16 11:41:17;;;;;;;19.30;10.00;;;;;;;;;;5052750;28;20433;-64
2021/11/16 11:43:43;;;;;;;14.23;8.70;;;;;;;;;;5052415;28;20997;-64
2021/11/16 11:46:09;;;;;;;13.60;8.10;;;;;;;;;;5051978;28;20536;-63
2021/11/16 11:48:35;;;;;;;15.50;7.73;;;;;;;;;;5051963;28;20517;-65
2021/11/16 11:51:10;;;;;;;14.80;8.30;;;;;;;;;;5053298;28;20449;-64
2021/11/16 11:53:36;;;;;;;13.83;8.73;;;;;;;;;;5054588;28;20425;-64
2021/11/16 11:56:07;;;;;;;13.80;9.10;;;;;;;;;;5051131;28;20450;-66
2021/11/16 11:58:35;;;;;;;16.57;9.43;;;;;;;;;;5050772;28;20513;-64
2021/11/16 12:01:06;;;;;;;18.57;8.80;;;;;;;;;;5052148;28;20428;-62
2021/11/16 12:03:33;;;;;;;15.33;9.73;;;;;;;;;;5052382;28;20418;-63
2021/11/16 12:05:59;;;;;;;16.63;9.40;;;;;;;;;;5052173;28;20437;-65
2021/11/16 12:08:26;;;;;;;17.33;9.73;;;;;;;;;;5050856;28;20417;-64
2021/11/16 12:10:53;;;;;;;14.53;8.87;;;;;;;;;;5051595;28;20458;-64
2021/11/16 12:13:20;;;;;;;17.60;10.37;;;;;;;;;;5051785;28;20516;-65
2021/11/16 12:16:07;;;;;;;12.80;8.60;;;;;;;;;;5051098;28;20486;-69
2021/11/16 12:18:36;;;;;;;14.30;8.13;;;;;;;;;;5054207;28;20474;-64
2021/11/16 12:21:02;;;;;;;20.53;9.70;;;;;;;;;;5052062;28;20461;-64
2021/11/16 12:23:47;;;;;;;16.43;10.60;;;;;;;;;;5051531;28;20422;-69
2021/11/16 12:26:14;;;;;;;19.87;9.67;;;;;;;;;;5051572;28;20441;-71
2021/11/16 12:28:41;;;;;;;24.17;16.03;;;;;;;;;;5067694;28;20422;-66
2021/11/16 12:31:08;;;;;;;18.60;11.43;;;;;;;;;;5057058;28;20535;-68
2021/11/16 12:33:40;;;;;;;18.10;11.40;;;;;;;;;;5052220;28;20454;-71
2021/11/16 12:36:07;;;;;;;14.90;8.33;;;;;;;;;;5050051;28;20475;-66
2021/11/16 12:38:37;;;;;;;17.20;10.38;;;;;;;;;;5048783;28;20833;-70
2021/11/16 12:41:26;;;;;;;13.80;8.07;;;;;;;;;;5051571;28;20260;-68
2021/11/16 12:43:53;;;;;;;14.80;8.83;;;;;;;;;;5059313;28;20424;-69
2021/11/16 12:46:20;;;;;;;14.80;8.80;;;;;;;;;;5054686;28;20434;-71
2021/11/16 12:48:49;;;;;;;13.70;8.53;;;;;;;;;;5056494;28;20427;-67
2021/11/16 12:51:16;;;;;;;15.60;10.20;;;;;;;;;;5064172;28;20452;-64
2021/11/16 12:53:52;;;;;;;16.67;9.40;;;;;;;;;;5046367;28;20516;-68
2021/11/16 12:56:18;;;;;;;15.40;10.00;;;;;;;;;;5052050;28;20463;-68
2021/11/16 12:58:52;;;;;;;18.42;11.32;;;;;;;;;;5050660;28;20399;-66
2021/11/16 13:01:36;;;;;;;19.77;10.93;;;;;;;;;;5052587;28;20187;-65
2021/11/16 13:04:08;;;;;;;15.30;9.90;;;;;;;;;;5054466;28;20826;-65
2021/11/16 13:06:35;;;;;;;15.53;9.77;;;;;;;;;;5051919;28;20429;-65
2021/11/16 13:09:01;;;;;;;18.70;11.03;;;;;;;;;;5052336;28;20937;-68
2021/11/16 13:11:42;;;;;;;15.93;9.77;;;;;;;;;;5054658;28;20464;-67
2021/11/16 13:14:10;;;;;;;18.23;11.83;;;;;;;;;;5057835;28;20420;-67
2021/11/16 13:16:36;;;;;;;22.07;12.17;;;;;;;;;;5054758;28;20533;-67
2021/11/16 13:19:03;;;;;;;19.30;10.57;;;;;;;;;;5060498;28;20414;-67
2021/11/16 13:21:36;;;;;;;20.53;9.77;;;;;;;;;;5052386;28;20447;-65
2021/11/16 13:24:03;;;;;;;19.52;11.80;;;;;;;;;;5055406;28;20483;-68
2021/11/16 13:26:45;;;;;;;22.43;11.30;;;;;;;;;;5057303;28;20203;-68
2021/11/16 13:29:30;;;;;;;19.80;10.43;;;;;;;;;;5057525;28;20721;-64
2021/11/16 13:31:58;;;;;;;21.13;12.70;;;;;;;;;;5056611;28;20498;-66
2021/11/16 13:34:33;;;;;;;24.07;12.53;;;;;;;;;;5048065;28;20425;-66
2021/11/16 13:37:11;;;;;;;16.47;10.93;;;;;;;;;;5050626;28;20441;-66
2021/11/16 13:39:37;;;;;;;16.60;9.63;;;;;;;;;;5056088;28;20902;-66
2021/11/16 13:42:15;;;;;;;20.20;10.00;;;;;;;;;;5055568;28;20843;-66
2021/11/16 13:44:47;;;;;;;18.77;9.70;;;;;;;;;;5058141;28;20819;-64
2021/11/16 13:47:45;;;;;;;15.87;8.50;;;;;;;;;;5053623;28;20449;-64
2021/11/16 13:50:24;;;;;;;17.95;11.70;;;;;;;;;;5058167;28;20427;-68
2021/11/16 13:52:55;;;;;;;21.70;11.37;;;;;;;;;;5062995;28;20159;-67
2021/11/16 13:55:22;;;;;;;23.27;12.10;;;;;;;;;;5060142;28;20488;-66
2021/11/16 13:57:50;;;;;;;19.97;10.83;;;;;;;;;;5060897;28;20410;-62
2021/11/16 14:00:27;;;;;;;17.77;11.13;;;;;;;;;;5058260;28;20974;-62
2021/11/16 14:03:01;;;;;;;16.63;10.73;;;;;;;;;;5061150;28;20948;-62
2021/11/16 14:05:47;;;;;;;16.23;9.17;;;;;;;;;;5049993;28;20537;-65
2021/11/16 14:08:15;;;;;;;17.60;10.00;;;;;;;;;;5056569;28;20440;-64
2021/11/16 14:10:41;;;;;;;18.77;11.37;;;;;;;;;;5056271;28;20458;-65
2021/11/16 14:13:15;;;;;;;19.53;10.50;;;;;;;;;;5056396;28;20426;-65
2021/11/16 14:15:42;;;;;;;17.93;10.73;;;;;;;;;;5059632;28;20428;-65
2021/11/16 14:18:10;;;;;;;15.63;9.87;;;;;;;;;;5061359;28;20468;-62
2021/11/16 14:20:37;;;;;;;18.65;10.82;;;;;;;;;;5056549;28;20514;-63
2021/11/16 14:23:22;;;;;;;19.83;11.80;;;;;;;;;;5055353;28;20168;-64
2021/11/16 14:25:52;;;;;;;15.23;8.70;;;;;;;;;;5049836;28;20482;-63
2021/11/16 14:28:18;;;;;;;19.93;10.17;;;;;;;;;;5063049;28;20472;-63
2021/11/16 14:30:45;;;;;;;15.50;10.80;;;;;;;;;;5061861;28;20547;-64
2021/11/16 14:33:12;;;;;;;18.70;9.70;;;;;;;;;;5061150;28;20417;-65
2021/11/16 14:35:40;;;;;;;18.97;10.30;;;;;;;;;;5059513;28;20438;-64
2021/11/16 14:38:07;;;;;;;18.43;9.60;;;;;;;;;;5056813;28;20817;-65
2021/11/16 14:40:33;;;;;;;22.10;10.03;;;;;;;;;;5057277;28;20421;-64
2021/11/16 14:42:59;;;;;;;18.30;10.17;;;;;;;;;;5058240;28;20429;-65
2021/11/16 14:45:30;;;;;;;20.83;10.50;;;;;;;;;;5053576;28;20700;-66
2021/11/16 14:48:01;;;;;;;17.13;9.37;;;;;;;;;;5060574;28;20429;-71
2021/11/16 14:50:35;;;;;;;17.77;9.87;;;;;;;;;;5049737;28;20501;-68